sensor_id;sensor_type;location;lat;lon;timestamp;pressure;altitude;pressure_sealevel;temperature;humidity
36242;BME280;22283;42.748;12.732;2023-08-06T00:04:40;97287.00;;;18.41;100.00
36242;BME280;22283;42.748;12.732;2023-08-06T00:09:41;97285.53;;;18.39;100.00
36242;BME280;22283;42.748;12.732;2023-08-06T00:14:42;97279.59;;;18.29;100.00
36242;BME280;22283;42.748;12.732;2023-08-06T00:19:43;97281.28;;;18.30;100.00
36242;BME280;22283;42.748;12.732;2023-08-06T00:24:44;97277.44;;;18.24;100.00
36242;BME280;22283;42.748;12.732;2023-08-06T00:29:45;97270.50;;;18.15;100.00
36242;BME280;22283;42.748;12.732;2023-08-06T00:34:45;97282.72;;;18.17;100.00
36242;BME280;22283;42.748;12.732;2023-08-06T00:39:48;97290.22;;;18.22;100.00
36242;BME280;22283;42.748;12.732;2023-08-06T00:44:49;97310.66;;;18.15;100.00
36242;BME280;22283;42.748;12.732;2023-08-06T00:49:50;97313.22;;;18.08;100.00
36242;BME280;22283;42.748;12.732;2023-08-06T00:54:51;97303.25;;;18.02;100.00
36242;BME280;22283;42.748;12.732;2023-08-06T00:59:52;97304.50;;;17.91;100.00
36242;BME280;22283;42.748;12.732;2023-08-06T01:04:54;97310.09;;;17.74;100.00
36242;BME280;22283;42.748;12.732;2023-08-06T01:15:22;97295.84;;;17.58;100.00
36242;BME280;22283;42.748;12.732;2023-08-06T01:20:30;97276.38;;;17.64;100.00
36242;BME280;22283;42.748;12.732;2023-08-06T01:31:15;97282.81;;;17.55;100.00
36242;BME280;22283;42.748;12.732;2023-08-06T01:36:19;97279.22;;;17.40;100.00
36242;BME280;22283;42.748;12.732;2023-08-06T01:41:20;97288.09;;;17.32;100.00
36242;BME280;22283;42.748;12.732;2023-08-06T01:46:21;97282.09;;;17.30;100.00
36242;BME280;22283;42.748;12.732;2023-08-06T01:51:22;97282.03;;;17.15;100.00
36242;BME280;22283;42.748;12.732;2023-08-06T01:56:23;97272.13;;;16.85;100.00
36242;BME280;22283;42.748;12.732;2023-08-06T02:01:24;97270.50;;;16.76;100.00
36242;BME280;22283;42.748;12.732;2023-08-06T02:06:24;97264.47;;;16.74;100.00
36242;BME280;22283;42.748;12.732;2023-08-06T02:11:25;97272.78;;;16.70;100.00
36242;BME280;22283;42.748;12.732;2023-08-06T02:16:27;97278.81;;;16.81;100.00
36242;BME280;22283;42.748;12.732;2023-08-06T02:21:28;97286.16;;;16.79;100.00
36242;BME280;22283;42.748;12.732;2023-08-06T02:26:29;97267.44;;;16.70;100.00
36242;BME280;22283;42.748;12.732;2023-08-06T02:31:30;97264.66;;;16.64;100.00
36242;BME280;22283;42.748;12.732;2023-08-06T02:36:32;97253.78;;;16.65;100.00
36242;BME280;22283;42.748;12.732;2023-08-06T02:41:33;97247.44;;;16.83;100.00
36242;BME280;22283;42.748;12.732;2023-08-06T02:46:34;97231.81;;;16.94;100.00
36242;BME280;22283;42.748;12.732;2023-08-06T02:51:34;97234.94;;;17.06;100.00
36242;BME280;22283;42.748;12.732;2023-08-06T02:56:35;97242.91;;;17.14;100.00
36242;BME280;22283;42.748;12.732;2023-08-06T03:01:45;97229.44;;;17.08;100.00
36242;BME280;22283;42.748;12.732;2023-08-06T03:06:53;97233.63;;;17.02;100.00
36242;BME280;22283;42.748;12.732;2023-08-06T03:11:57;97226.38;;;16.88;100.00
36242;BME280;22283;42.748;12.732;2023-08-06T03:16:58;97224.41;;;16.74;100.00
36242;BME280;22283;42.748;12.732;2023-08-06T03:21:59;97219.78;;;16.59;100.00
36242;BME280;22283;42.748;12.732;2023-08-06T03:27:00;97216.25;;;16.59;100.00
36242;BME280;22283;42.748;12.732;2023-08-06T03:32:01;97204.41;;;16.61;100.00
36242;BME280;22283;42.748;12.732;2023-08-06T03:37:02;97208.22;;;16.67;100.00
36242;BME280;22283;42.748;12.732;2023-08-06T03:42:03;97195.38;;;16.62;100.00
36242;BME280;22283;42.748;12.732;2023-08-06T03:47:04;97212.78;;;16.50;100.00
36242;BME280;22283;42.748;12.732;2023-08-06T03:52:05;97213.97;;;16.31;100.00
36242;BME280;22283;42.748;12.732;2023-08-06T03:57:06;97214.50;;;16.18;100.00
36242;BME280;22283;42.748;12.732;2023-08-06T04:02:07;97212.69;;;16.11;100.00
36242;BME280;22283;42.748;12.732;2023-08-06T04:07:08;97193.69;;;16.06;100.00
36242;BME280;22283;42.748;12.732;2023-08-06T04:12:09;97192.16;;;16.28;100.00
36242;BME280;22283;42.748;12.732;2023-08-06T04:17:10;97194.06;;;16.50;100.00
36242;BME280;22283;42.748;12.732;2023-08-06T04:22:11;97193.94;;;16.52;100.00
36242;BME280;22283;42.748;12.732;2023-08-06T04:27:13;97202.44;;;16.47;100.00
36242;BME280;22283;42.748;12.732;2023-08-06T04:32:15;97196.97;;;16.40;100.00
36242;BME280;22283;42.748;12.732;2023-08-06T04:37:21;97196.78;;;16.42;100.00
36242;BME280;22283;42.748;12.732;2023-08-06T04:42:23;97190.97;;;17.40;100.00
36242;BME280;22283;42.748;12.732;2023-08-06T04:47:23;97190.53;;;19.15;90.85
36242;BME280;22283;42.748;12.732;2023-08-06T04:52:26;97189.34;;;20.67;77.70
36242;BME280;22283;42.748;12.732;2023-08-06T04:57:28;97186.00;;;21.87;68.24
36242;BME280;22283;42.748;12.732;2023-08-06T05:02:29;97188.88;;;22.58;64.42
36242;BME280;22283;42.748;12.732;2023-08-06T05:07:30;97193.69;;;23.15;62.60
36242;BME280;22283;42.748;12.732;2023-08-06T05:12:33;97189.88;;;23.67;57.21
36242;BME280;22283;42.748;12.732;2023-08-06T05:17:39;97223.34;;;23.91;58.40
36242;BME280;22283;42.748;12.732;2023-08-06T05:22:41;97221.16;;;24.07;56.15
36242;BME280;22283;42.748;12.732;2023-08-06T05:27:41;97225.97;;;25.16;53.55
36242;BME280;22283;42.748;12.732;2023-08-06T05:32:42;97234.72;;;25.30;52.60
36242;BME280;22283;42.748;12.732;2023-08-06T05:37:43;97233.66;;;25.49;51.10
36242;BME280;22283;42.748;12.732;2023-08-06T05:42:44;97230.34;;;25.47;51.71
36242;BME280;22283;42.748;12.732;2023-08-06T05:47:45;97233.19;;;25.52;49.97
36242;BME280;22283;42.748;12.732;2023-08-06T05:52:45;97223.56;;;25.57;47.15
36242;BME280;22283;42.748;12.732;2023-08-06T05:57:46;97226.91;;;25.40;47.05
36242;BME280;22283;42.748;12.732;2023-08-06T06:02:47;97235.31;;;26.11;46.08
36242;BME280;22283;42.748;12.732;2023-08-06T06:07:51;97247.63;;;26.48;46.28
36242;BME280;22283;42.748;12.732;2023-08-06T06:12:52;97255.75;;;26.84;45.96
36242;BME280;22283;42.748;12.732;2023-08-06T06:17:53;97256.59;;;26.84;45.78
36242;BME280;22283;42.748;12.732;2023-08-06T06:22:54;97252.09;;;27.02;47.11
36242;BME280;22283;42.748;12.732;2023-08-06T06:27:55;97257.53;;;26.78;46.65
36242;BME280;22283;42.748;12.732;2023-08-06T06:32:56;97252.09;;;27.02;46.74
36242;BME280;22283;42.748;12.732;2023-08-06T06:37:59;97257.25;;;26.44;48.14
36242;BME280;22283;42.748;12.732;2023-08-06T06:43:00;97252.59;;;26.75;47.27
36242;BME280;22283;42.748;12.732;2023-08-06T06:48:01;97232.88;;;26.56;47.37
36242;BME280;22283;42.748;12.732;2023-08-06T06:53:01;97236.06;;;26.77;46.92
36242;BME280;22283;42.748;12.732;2023-08-06T06:58:02;97248.28;;;26.32;46.09
36242;BME280;22283;42.748;12.732;2023-08-06T07:03:03;97251.84;;;26.44;46.52
36242;BME280;22283;42.748;12.732;2023-08-06T07:08:04;97259.53;;;26.94;46.41
36242;BME280;22283;42.748;12.732;2023-08-06T07:13:05;97245.25;;;27.11;46.58
36242;BME280;22283;42.748;12.732;2023-08-06T07:18:05;97254.84;;;26.78;46.94
36242;BME280;22283;42.748;12.732;2023-08-06T07:23:06;97268.63;;;26.88;46.97
36242;BME280;22283;42.748;12.732;2023-08-06T07:28:07;97249.00;;;27.10;47.16
36242;BME280;22283;42.748;12.732;2023-08-06T07:33:08;97264.94;;;27.06;46.88
36242;BME280;22283;42.748;12.732;2023-08-06T07:38:08;97262.00;;;27.19;45.81
36242;BME280;22283;42.748;12.732;2023-08-06T07:43:09;97255.88;;;27.01;45.71
36242;BME280;22283;42.748;12.732;2023-08-06T07:48:10;97269.31;;;27.07;45.25
36242;BME280;22283;42.748;12.732;2023-08-06T07:53:11;97267.31;;;27.14;44.39
36242;BME280;22283;42.748;12.732;2023-08-06T07:58:11;97275.91;;;27.23;45.22
36242;BME280;22283;42.748;12.732;2023-08-06T08:03:13;97261.06;;;27.14;45.22
36242;BME280;22283;42.748;12.732;2023-08-06T08:08:14;97251.63;;;27.28;45.56
36242;BME280;22283;42.748;12.732;2023-08-06T08:13:15;97252.81;;;27.09;44.42
36242;BME280;22283;42.748;12.732;2023-08-06T08:18:16;97256.38;;;26.74;45.75
36242;BME280;22283;42.748;12.732;2023-08-06T08:23:16;97244.78;;;27.14;45.31
36242;BME280;22283;42.748;12.732;2023-08-06T08:28:17;97235.34;;;27.05;44.02
36242;BME280;22283;42.748;12.732;2023-08-06T08:33:18;97238.28;;;27.15;45.02
36242;BME280;22283;42.748;12.732;2023-08-06T08:38:18;97245.69;;;27.08;43.97
36242;BME280;22283;42.748;12.732;2023-08-06T08:43:23;97225.41;;;27.22;42.95
36242;BME280;22283;42.748;12.732;2023-08-06T08:48:24;97232.00;;;27.26;42.78
36242;BME280;22283;42.748;12.732;2023-08-06T08:53:25;97220.25;;;26.85;39.67
36242;BME280;22283;42.748;12.732;2023-08-06T08:58:27;97223.53;;;27.11;42.28
36242;BME280;22283;42.748;12.732;2023-08-06T09:03:28;97215.50;;;27.16;41.86
36242;BME280;22283;42.748;12.732;2023-08-06T09:08:34;97209.00;;;27.05;42.47
36242;BME280;22283;42.748;12.732;2023-08-06T09:13:37;97212.38;;;27.24;41.99
36242;BME280;22283;42.748;12.732;2023-08-06T09:18:39;97213.03;;;27.14;42.15
36242;BME280;22283;42.748;12.732;2023-08-06T09:23:40;97218.09;;;27.11;43.59
36242;BME280;22283;42.748;12.732;2023-08-06T09:28:40;97214.13;;;27.42;43.26
36242;BME280;22283;42.748;12.732;2023-08-06T09:33:43;97213.28;;;27.70;43.37
36242;BME280;22283;42.748;12.732;2023-08-06T09:38:45;97214.94;;;27.71;42.13
36242;BME280;22283;42.748;12.732;2023-08-06T09:43:46;97193.34;;;27.76;41.75
36242;BME280;22283;42.748;12.732;2023-08-06T09:48:50;97207.84;;;27.99;42.74
36242;BME280;22283;42.748;12.732;2023-08-06T09:53:51;97195.97;;;28.22;42.14
36242;BME280;22283;42.748;12.732;2023-08-06T09:58:52;97196.00;;;28.38;42.67
36242;BME280;22283;42.748;12.732;2023-08-06T10:03:54;97199.88;;;28.09;41.08
36242;BME280;22283;42.748;12.732;2023-08-06T10:08:57;97207.38;;;28.35;42.38
36242;BME280;22283;42.748;12.732;2023-08-06T10:14:07;97206.25;;;28.70;41.68
36242;BME280;22283;42.748;12.732;2023-08-06T10:19:10;97205.28;;;28.76;41.83
36242;BME280;22283;42.748;12.732;2023-08-06T10:24:13;97225.31;;;28.03;41.99
36242;BME280;22283;42.748;12.732;2023-08-06T10:29:37;97213.63;;;27.45;43.26
36242;BME280;22283;42.748;12.732;2023-08-06T10:35:07;97203.72;;;26.98;45.64
36242;BME280;22283;42.748;12.732;2023-08-06T10:40:27;97203.88;;;26.45;45.89
36242;BME280;22283;42.748;12.732;2023-08-06T10:45:30;97212.19;;;26.20;46.04
36242;BME280;22283;42.748;12.732;2023-08-06T10:50:34;97221.78;;;26.34;46.85
36242;BME280;22283;42.748;12.732;2023-08-06T10:55:35;97215.56;;;26.45;45.88
36242;BME280;22283;42.748;12.732;2023-08-06T11:00:35;97227.00;;;26.47;46.47
36242;BME280;22283;42.748;12.732;2023-08-06T11:05:36;97210.94;;;26.81;46.48
36242;BME280;22283;42.748;12.732;2023-08-06T11:10:37;97198.81;;;27.24;44.63
36242;BME280;22283;42.748;12.732;2023-08-06T11:15:37;97180.78;;;27.18;45.56
36242;BME280;22283;42.748;12.732;2023-08-06T11:20:39;97177.84;;;27.48;45.91
36242;BME280;22283;42.748;12.732;2023-08-06T11:25:46;97166.91;;;27.60;43.57
36242;BME280;22283;42.748;12.732;2023-08-06T11:30:47;97169.78;;;27.82;44.03
36242;BME280;22283;42.748;12.732;2023-08-06T11:35:48;97177.84;;;27.93;42.79
36242;BME280;22283;42.748;12.732;2023-08-06T11:40:50;97175.88;;;27.89;43.52
36242;BME280;22283;42.748;12.732;2023-08-06T11:45:51;97153.97;;;28.12;41.86
36242;BME280;22283;42.748;12.732;2023-08-06T11:50:55;97156.44;;;28.14;41.69
36242;BME280;22283;42.748;12.732;2023-08-06T11:55:57;97148.44;;;27.90;42.94
36242;BME280;22283;42.748;12.732;2023-08-06T12:00:58;97143.88;;;28.47;43.16
36242;BME280;22283;42.748;12.732;2023-08-06T12:05:59;97143.09;;;29.07;40.04
36242;BME280;22283;42.748;12.732;2023-08-06T12:11:00;97152.94;;;29.13;39.03
36242;BME280;22283;42.748;12.732;2023-08-06T12:16:01;97152.66;;;28.92;41.54
36242;BME280;22283;42.748;12.732;2023-08-06T12:21:01;97143.06;;;28.29;42.41
36242;BME280;22283;42.748;12.732;2023-08-06T12:26:02;97155.19;;;28.38;43.03
36242;BME280;22283;42.748;12.732;2023-08-06T12:31:03;97161.22;;;28.24;42.93
36242;BME280;22283;42.748;12.732;2023-08-06T12:36:04;97162.38;;;29.27;42.35
36242;BME280;22283;42.748;12.732;2023-08-06T12:41:05;97149.47;;;29.45;41.48
36242;BME280;22283;42.748;12.732;2023-08-06T12:46:05;97154.91;;;29.17;38.92
36242;BME280;22283;42.748;12.732;2023-08-06T12:51:06;97139.88;;;29.64;39.04
36242;BME280;22283;42.748;12.732;2023-08-06T12:56:07;97115.00;;;29.87;38.71
36242;BME280;22283;42.748;12.732;2023-08-06T13:01:08;97137.56;;;29.78;39.96
36242;BME280;22283;42.748;12.732;2023-08-06T13:06:08;97138.56;;;29.45;40.34
36242;BME280;22283;42.748;12.732;2023-08-06T13:11:10;97147.31;;;29.20;38.41
36242;BME280;22283;42.748;12.732;2023-08-06T13:16:10;97155.81;;;29.50;39.63
36242;BME280;22283;42.748;12.732;2023-08-06T13:21:11;97149.50;;;29.50;40.18
36242;BME280;22283;42.748;12.732;2023-08-06T13:26:12;97142.19;;;29.77;40.38
36242;BME280;22283;42.748;12.732;2023-08-06T13:31:12;97140.31;;;30.15;40.41
36242;BME280;22283;42.748;12.732;2023-08-06T13:36:13;97138.69;;;30.14;41.20
36242;BME280;22283;42.748;12.732;2023-08-06T13:41:13;97143.50;;;30.39;42.15
36242;BME280;22283;42.748;12.732;2023-08-06T13:46:15;97140.19;;;30.74;40.81
36242;BME280;22283;42.748;12.732;2023-08-06T13:51:18;97158.28;;;30.48;40.85
36242;BME280;22283;42.748;12.732;2023-08-06T13:56:19;97148.56;;;29.61;41.78
36242;BME280;22283;42.748;12.732;2023-08-06T14:01:20;97158.84;;;29.27;43.51
36242;BME280;22283;42.748;12.732;2023-08-06T14:06:20;97158.38;;;29.13;44.05
36242;BME280;22283;42.748;12.732;2023-08-06T14:11:21;97153.00;;;29.18;44.10
36242;BME280;22283;42.748;12.732;2023-08-06T14:16:22;97149.56;;;29.28;43.04
36242;BME280;22283;42.748;12.732;2023-08-06T14:21:22;97146.72;;;28.96;41.34
36242;BME280;22283;42.748;12.732;2023-08-06T14:26:23;97146.59;;;28.85;43.03
36242;BME280;22283;42.748;12.732;2023-08-06T14:31:24;97146.03;;;28.45;44.44
36242;BME280;22283;42.748;12.732;2023-08-06T14:36:26;97159.66;;;28.45;43.44
36242;BME280;22283;42.748;12.732;2023-08-06T14:41:26;97156.34;;;29.25;43.57
36242;BME280;22283;42.748;12.732;2023-08-06T14:46:27;97149.28;;;29.78;42.42
36242;BME280;22283;42.748;12.732;2023-08-06T14:51:28;97159.16;;;29.84;40.60
36242;BME280;22283;42.748;12.732;2023-08-06T14:56:28;97169.25;;;29.57;40.54
36242;BME280;22283;42.748;12.732;2023-08-06T15:01:30;97169.38;;;29.45;39.52
36242;BME280;22283;42.748;12.732;2023-08-06T15:06:30;97167.59;;;28.90;40.81
36242;BME280;22283;42.748;12.732;2023-08-06T15:11:31;97157.81;;;28.33;41.20
36242;BME280;22283;42.748;12.732;2023-08-06T15:16:32;97161.06;;;27.80;42.31
36242;BME280;22283;42.748;12.732;2023-08-06T15:21:34;97166.56;;;27.85;43.02
36242;BME280;22283;42.748;12.732;2023-08-06T15:26:35;97160.66;;;28.05;42.78
36242;BME280;22283;42.748;12.732;2023-08-06T15:31:38;97170.78;;;28.43;42.00
36242;BME280;22283;42.748;12.732;2023-08-06T15:36:39;97178.25;;;28.53;42.48
36242;BME280;22283;42.748;12.732;2023-08-06T15:41:40;97167.00;;;28.44;42.24
36242;BME280;22283;42.748;12.732;2023-08-06T15:46:40;97176.84;;;28.33;42.72
36242;BME280;22283;42.748;12.732;2023-08-06T15:51:41;97172.09;;;28.40;42.63
36242;BME280;22283;42.748;12.732;2023-08-06T15:56:42;97175.63;;;28.24;42.27
36242;BME280;22283;42.748;12.732;2023-08-06T16:01:42;97175.06;;;28.05;42.65
36242;BME280;22283;42.748;12.732;2023-08-06T16:06:43;97187.00;;;28.04;43.32
36242;BME280;22283;42.748;12.732;2023-08-06T16:11:44;97192.09;;;27.84;43.53
36242;BME280;22283;42.748;12.732;2023-08-06T16:16:46;97192.28;;;27.37;44.98
36242;BME280;22283;42.748;12.732;2023-08-06T16:21:47;97191.34;;;26.91;45.30
36242;BME280;22283;42.748;12.732;2023-08-06T16:26:47;97205.53;;;26.81;46.58
36242;BME280;22283;42.748;12.732;2023-08-06T16:31:48;97201.28;;;26.73;46.96
36242;BME280;22283;42.748;12.732;2023-08-06T16:36:49;97203.63;;;26.70;47.16
36242;BME280;22283;42.748;12.732;2023-08-06T16:41:50;97212.50;;;26.54;47.90
36242;BME280;22283;42.748;12.732;2023-08-06T16:46:50;97207.25;;;26.40;48.36
36242;BME280;22283;42.748;12.732;2023-08-06T16:51:51;97207.03;;;26.30;48.92
36242;BME280;22283;42.748;12.732;2023-08-06T16:56:52;97204.69;;;26.22;49.01
36242;BME280;22283;42.748;12.732;2023-08-06T17:01:52;97213.50;;;26.17;49.45
36242;BME280;22283;42.748;12.732;2023-08-06T17:06:53;97220.47;;;26.13;49.76
36242;BME280;22283;42.748;12.732;2023-08-06T17:11:54;97224.69;;;25.97;50.22
36242;BME280;22283;42.748;12.732;2023-08-06T17:16:54;97220.38;;;25.78;51.06
36242;BME280;22283;42.748;12.732;2023-08-06T17:21:55;97234.34;;;25.75;51.27
36242;BME280;22283;42.748;12.732;2023-08-06T17:26:56;97231.69;;;25.57;51.77
36242;BME280;22283;42.748;12.732;2023-08-06T17:31:59;97232.03;;;25.30;52.33
36242;BME280;22283;42.748;12.732;2023-08-06T17:36:59;97235.72;;;25.17;53.05
36242;BME280;22283;42.748;12.732;2023-08-06T17:42:00;97255.63;;;25.05;53.93
36242;BME280;22283;42.748;12.732;2023-08-06T17:47:04;97246.91;;;24.84;54.62
36242;BME280;22283;42.748;12.732;2023-08-06T17:52:05;97255.44;;;24.63;55.54
36242;BME280;22283;42.748;12.732;2023-08-06T17:57:06;97252.56;;;24.58;56.08
36242;BME280;22283;42.748;12.732;2023-08-06T18:02:07;97269.03;;;24.56;56.44
36242;BME280;22283;42.748;12.732;2023-08-06T18:07:08;97279.22;;;24.54;56.64
36242;BME280;22283;42.748;12.732;2023-08-06T18:12:08;97273.97;;;24.34;57.65
36242;BME280;22283;42.748;12.732;2023-08-06T18:17:09;97285.94;;;24.20;58.13
36242;BME280;22283;42.748;12.732;2023-08-06T18:22:10;97297.44;;;24.09;59.04
36242;BME280;22283;42.748;12.732;2023-08-06T18:27:11;97309.13;;;24.02;59.74
36242;BME280;22283;42.748;12.732;2023-08-06T18:32:17;97314.19;;;23.92;60.35
36242;BME280;22283;42.748;12.732;2023-08-06T18:37:18;97317.97;;;23.85;60.98
36242;BME280;22283;42.748;12.732;2023-08-06T18:42:19;97327.09;;;23.84;61.30
36242;BME280;22283;42.748;12.732;2023-08-06T18:47:20;97344.63;;;23.61;62.35
36242;BME280;22283;42.748;12.732;2023-08-06T18:52:21;97356.31;;;23.48;63.84
36242;BME280;22283;42.748;12.732;2023-08-06T18:57:21;97354.50;;;23.29;64.54
36242;BME280;22283;42.748;12.732;2023-08-06T19:02:23;97373.19;;;23.24;65.79
36242;BME280;22283;42.748;12.732;2023-08-06T19:07:24;97382.97;;;23.18;66.36
36242;BME280;22283;42.748;12.732;2023-08-06T19:12:25;97393.56;;;23.06;68.11
36242;BME280;22283;42.748;12.732;2023-08-06T19:17:25;97408.72;;;22.94;68.77
36242;BME280;22283;42.748;12.732;2023-08-06T19:22:26;97418.44;;;22.82;69.63
36242;BME280;22283;42.748;12.732;2023-08-06T19:27:27;97420.94;;;22.70;71.09
36242;BME280;22283;42.748;12.732;2023-08-06T19:32:27;97430.66;;;22.51;72.02
36242;BME280;22283;42.748;12.732;2023-08-06T19:37:28;97436.00;;;22.31;73.69
36242;BME280;22283;42.748;12.732;2023-08-06T19:42:29;97437.56;;;22.13;75.82
36242;BME280;22283;42.748;12.732;2023-08-06T19:47:29;97451.19;;;21.98;76.34
36242;BME280;22283;42.748;12.732;2023-08-06T19:52:30;97456.91;;;21.81;77.66
36242;BME280;22283;42.748;12.732;2023-08-06T19:57:31;97461.63;;;21.73;78.72
36242;BME280;22283;42.748;12.732;2023-08-06T20:02:31;97468.06;;;21.72;79.59
36242;BME280;22283;42.748;12.732;2023-08-06T20:07:32;97460.13;;;21.64;81.21
36242;BME280;22283;42.748;12.732;2023-08-06T20:12:32;97463.44;;;21.66;80.97
36242;BME280;22283;42.748;12.732;2023-08-06T20:17:33;97466.06;;;21.87;80.20
36242;BME280;22283;42.748;12.732;2023-08-06T20:22:33;97466.84;;;21.81;81.76
36242;BME280;22283;42.748;12.732;2023-08-06T20:27:34;97480.03;;;21.63;82.48
36242;BME280;22283;42.748;12.732;2023-08-06T20:32:35;97489.81;;;21.42;84.92
36242;BME280;22283;42.748;12.732;2023-08-06T20:37:36;97488.41;;;21.25;86.05
36242;BME280;22283;42.748;12.732;2023-08-06T20:42:37;97500.72;;;21.12;83.34
36242;BME280;22283;42.748;12.732;2023-08-06T20:47:39;97492.28;;;20.94;80.05
36242;BME280;22283;42.748;12.732;2023-08-06T20:52:39;97512.78;;;20.74;81.45
36242;BME280;22283;42.748;12.732;2023-08-06T20:57:40;97517.19;;;20.60;78.59
36242;BME280;22283;42.748;12.732;2023-08-06T21:02:41;97526.94;;;20.46;79.97
36242;BME280;22283;42.748;12.732;2023-08-06T21:07:41;97528.44;;;20.34;80.39
36242;BME280;22283;42.748;12.732;2023-08-06T21:12:42;97531.59;;;20.23;84.68
36242;BME280;22283;42.748;12.732;2023-08-06T21:17:42;97534.03;;;20.18;82.05
36242;BME280;22283;42.748;12.732;2023-08-06T21:22:43;97536.16;;;20.07;79.50
36242;BME280;22283;42.748;12.732;2023-08-06T21:27:44;97533.03;;;20.04;77.64
36242;BME280;22283;42.748;12.732;2023-08-06T21:32:48;97524.31;;;20.02;80.56
36242;BME280;22283;42.748;12.732;2023-08-06T21:37:48;97536.09;;;19.86;83.00
36242;BME280;22283;42.748;12.732;2023-08-06T21:42:49;97540.16;;;19.82;86.64
36242;BME280;22283;42.748;12.732;2023-08-06T21:47:53;97537.13;;;20.00;89.90
36242;BME280;22283;42.748;12.732;2023-08-06T21:52:53;97547.56;;;20.09;89.56
36242;BME280;22283;42.748;12.732;2023-08-06T21:57:54;97557.91;;;19.83;90.92
36242;BME280;22283;42.748;12.732;2023-08-06T22:02:55;97546.66;;;19.73;91.97
36242;BME280;22283;42.748;12.732;2023-08-06T22:07:56;97547.00;;;19.99;92.58
36242;BME280;22283;42.748;12.732;2023-08-06T22:12:56;97545.16;;;19.85;93.78
36242;BME280;22283;42.748;12.732;2023-08-06T22:17:57;97551.47;;;19.54;94.26
36242;BME280;22283;42.748;12.732;2023-08-06T22:22:58;97548.34;;;19.13;96.22
36242;BME280;22283;42.748;12.732;2023-08-06T22:27:59;97552.13;;;18.81;97.25
36242;BME280;22283;42.748;12.732;2023-08-06T22:32:59;97558.13;;;18.52;98.78
36242;BME280;22283;42.748;12.732;2023-08-06T22:38:00;97558.00;;;18.76;98.29
36242;BME280;22283;42.748;12.732;2023-08-06T22:43:01;97560.25;;;18.56;98.83
36242;BME280;22283;42.748;12.732;2023-08-06T22:48:02;97553.41;;;18.23;100.00
36242;BME280;22283;42.748;12.732;2023-08-06T22:53:02;97558.84;;;18.06;100.00
36242;BME280;22283;42.748;12.732;2023-08-06T22:58:03;97559.88;;;17.97;100.00
36242;BME280;22283;42.748;12.732;2023-08-06T23:03:04;97557.22;;;17.73;100.00
36242;BME280;22283;42.748;12.732;2023-08-06T23:08:05;97569.81;;;17.56;100.00
36242;BME280;22283;42.748;12.732;2023-08-06T23:13:05;97566.66;;;17.52;100.00
36242;BME280;22283;42.748;12.732;2023-08-06T23:18:07;97566.00;;;17.50;100.00
36242;BME280;22283;42.748;12.732;2023-08-06T23:23:07;97558.06;;;17.73;98.29
36242;BME280;22283;42.748;12.732;2023-08-06T23:28:08;97551.59;;;17.51;98.47
36242;BME280;22283;42.748;12.732;2023-08-06T23:33:09;97557.31;;;17.40;99.15
36242;BME280;22283;42.748;12.732;2023-08-06T23:38:09;97542.88;;;17.57;96.88
36242;BME280;22283;42.748;12.732;2023-08-06T23:43:10;97546.53;;;17.73;93.34
36242;BME280;22283;42.748;12.732;2023-08-06T23:48:11;97534.91;;;17.33;94.55
36242;BME280;22283;42.748;12.732;2023-08-06T23:53:12;97543.97;;;16.99;97.56
36242;BME280;22283;42.748;12.732;2023-08-06T23:58:12;97548.28;;;16.76;100.00
